Time;durP1;ratioP1;P1;durP2;ratioP2;P2;SDS_P1;SDS_P2;PMS_P1;PMS_P2;Temp;Humidity;BMP_temperature;BMP_pressure;BME280_temperature;BME280_humidity;BME280_pressure;Samples;Min_cycle;Max_cycle;Signal;HPM_P1;HPM_P2
2023/06/17 00:00:25;;;;;;;15.48;10.00;;;;;;;19.49;58.37;152179.13;5055235;28;20136;-67
2023/06/17 00:02:50;;;;;;;12.75;9.88;;;;;;;19.43;58.54;152164.94;5058574;28;20041;-67
2023/06/17 00:05:16;;;;;;;13.23;10.63;;;;;;;19.33;58.56;152139.13;5045860;28;20037;-65
2023/06/17 00:07:43;;;;;;;15.48;10.18;;;;;;;19.34;58.99;152140.41;5063148;28;20146;-67
2023/06/17 00:10:09;;;;;;;13.45;11.20;;;;;;;19.33;58.65;152137.84;5062891;28;20029;-68
2023/06/17 00:12:36;;;;;;;17.08;10.68;;;;;;;19.27;59.15;152123.66;5062730;28;20095;-67
2023/06/17 00:15:04;;;;;;;16.40;10.85;;;;;;;19.23;59.41;152113.34;5059970;28;20037;-66
2023/06/17 00:17:30;;;;;;;13.80;10.45;;;;;;;19.20;59.36;152105.59;5057553;28;20286;-67
2023/06/17 00:20:08;;;;;;;17.38;10.85;;;;;;;19.13;59.55;152088.81;5062886;28;20029;-66
2023/06/17 00:22:34;;;;;;;16.13;9.82;;;;;;;19.17;59.52;152097.81;5062871;28;20085;-67
2023/06/17 00:25:01;;;;;;;14.40;9.77;;;;;;;19.14;59.29;152092.69;5062785;28;20329;-66
2023/06/17 00:27:28;;;;;;;14.52;9.68;;;;;;;19.11;59.48;152083.63;5061369;28;20266;-67
2023/06/17 00:29:53;;;;;;;17.05;9.98;;;;;;;19.04;59.56;152066.88;5062809;28;20029;-68
2023/06/17 00:32:19;;;;;;;15.20;10.10;;;;;;;19.06;59.71;152072.03;5062615;28;20025;-68
2023/06/17 00:34:45;;;;;;;13.52;10.27;;;;;;;19.03;59.73;152064.28;5062724;28;20368;-67
2023/06/17 00:37:10;;;;;;;12.48;10.05;;;;;;;19.01;59.53;152057.81;5062805;28;20074;-67
2023/06/17 00:39:36;;;;;;;13.98;9.98;;;;;;;19.02;59.39;152061.69;5062588;28;20314;-66
2023/06/17 00:42:02;;;;;;;15.90;10.45;;;;;;;18.99;60.00;152052.69;5065746;28;20037;-68
2023/06/17 00:44:27;;;;;;;19.08;10.02;;;;;;;18.99;60.07;152053.97;5066035;28;20040;-66
2023/06/17 00:46:54;;;;;;;15.77;10.02;;;;;;;18.93;59.68;152038.50;5066633;28;20329;-66
2023/06/17 00:49:33;;;;;;;13.65;10.00;;;;;;;18.89;60.25;152028.16;5066275;28;20298;-66
2023/06/17 00:52:04;;;;;;;16.15;9.70;;;;;;;18.83;59.87;152012.66;5066337;28;20274;-66
2023/06/17 00:54:34;;;;;;;17.83;10.60;;;;;;;18.86;60.44;152020.38;5066181;28;20044;-68
2023/06/17 00:57:01;;;;;;;15.88;10.30;;;;;;;18.81;60.68;152008.72;5066365;28;20197;-66
2023/06/17 00:59:31;;;;;;;20.00;10.90;;;;;;;18.77;60.74;151999.72;5065894;28;20029;-67
2023/06/17 01:01:57;;;;;;;17.92;10.00;;;;;;;18.86;60.54;152020.38;5066018;28;20094;-66
2023/06/17 01:04:23;;;;;;;15.82;9.93;;;;;;;18.79;61.16;152003.59;5065709;28;20520;-66
2023/06/17 01:06:59;;;;;;;18.25;10.85;;;;;;;18.76;61.72;151995.84;5065999;28;20037;-67
2023/06/17 01:09:29;;;;;;;15.50;9.88;;;;;;;18.71;61.15;151984.25;5065989;28;20040;-67
2023/06/17 01:11:57;;;;;;;16.40;9.55;;;;;;;18.72;60.82;151985.53;5065984;28;20320;-66
2023/06/17 01:14:24;;;;;;;21.15;10.27;;;;;;;18.82;60.80;152010.06;5065714;28;20067;-68
2023/06/17 01:16:53;;;;;;;15.65;10.45;;;;;;;18.56;61.15;151946.81;5065823;28;20033;-68
2023/06/17 01:19:21;;;;;;;14.88;10.52;;;;;;;18.72;61.29;151985.53;5065753;28;20031;-67
2023/06/17 01:21:53;;;;;;;15.88;11.13;;;;;;;18.76;61.73;151997.13;5065622;28;20021;-66
2023/06/17 01:24:29;;;;;;;18.48;10.35;;;;;;;18.77;61.57;151999.72;5065289;28;20045;-68
2023/06/17 01:26:59;;;;;;;15.80;11.07;;;;;;;18.76;62.19;151997.13;5065558;28;20358;-68
2023/06/17 01:29:29;;;;;;;16.25;11.02;;;;;;;18.65;62.16;151968.75;5065354;28;20053;-67
2023/06/17 01:31:58;;;;;;;15.35;10.63;;;;;;;18.69;62.13;151979.06;5065556;28;20025;-67
2023/06/17 01:34:34;;;;;;;16.08;10.57;;;;;;;18.71;62.51;151982.94;5065386;28;20033;-66
2023/06/17 01:37:03;;;;;;;18.25;10.77;;;;;;;18.72;62.94;151985.53;5065424;28;20360;-67
2023/06/17 01:39:31;;;;;;;18.85;11.75;;;;;;;18.69;63.26;151979.06;5047470;28;20025;-67
2023/06/17 01:41:59;;;;;;;20.00;10.50;;;;;;;18.67;62.46;151973.94;5065350;28;20060;-67
2023/06/17 01:44:27;;;;;;;21.48;10.80;;;;;;;18.65;63.52;151968.75;5065147;28;20029;-67
2023/06/17 01:46:52;;;;;;;14.85;10.15;;;;;;;18.64;63.13;151966.19;5065309;28;20075;-67
2023/06/17 01:49:18;;;;;;;18.10;10.95;;;;;;;18.67;63.00;151973.94;5065250;28;20029;-68
2023/06/17 01:51:44;;;;;;;18.50;11.43;;;;;;;18.72;62.72;151986.81;5065208;28;20025;-68
2023/06/17 01:54:09;;;;;;;15.55;10.50;;;;;;;18.74;63.22;151990.69;5065180;28;20035;-67
2023/06/17 01:56:35;;;;;;;17.20;10.60;;;;;;;18.72;63.97;151986.81;5065073;28;20123;-67
2023/06/17 01:59:01;;;;;;;20.92;11.48;;;;;;;18.73;63.25;151988.13;5065398;28;20198;-67
2023/06/17 02:01:26;;;;;;;18.65;10.80;;;;;;;18.73;63.67;151988.13;5064995;28;20048;-67
2023/06/17 02:03:52;;;;;;;21.08;11.13;;;;;;;18.78;63.28;152002.31;5064905;28;20317;-67
2023/06/17 02:06:18;;;;;;;19.92;11.38;;;;;;;18.83;63.71;152012.66;5057293;28;20024;-67
2023/06/17 02:08:45;;;;;;;22.30;10.75;;;;;;;18.63;63.52;151963.59;5050690;28;20051;-68
2023/06/17 02:11:11;;;;;;;19.63;11.13;;;;;;;18.85;63.15;152019.06;5064895;28;20099;-69
2023/06/17 02:13:36;;;;;;;17.08;10.18;;;;;;;18.85;63.48;152019.06;5060186;28;20033;-67
2023/06/17 02:16:02;;;;;;;18.95;11.43;;;;;;;18.94;63.40;152041.03;5061183;28;20233;-66
2023/06/17 02:18:27;;;;;;;17.52;10.25;;;;;;;18.93;63.53;152039.75;5059114;28;20059;-68
2023/06/17 02:20:53;;;;;;;16.20;9.82;;;;;;;18.96;62.85;152046.22;5064801;28;20035;-69
2023/06/17 02:23:19;;;;;;;20.48;10.07;;;;;;;19.01;63.25;152057.81;5064538;28;20025;-67
2023/06/17 02:25:45;;;;;;;15.23;10.13;;;;;;;19.07;62.90;152074.63;5064793;28;20047;-67
2023/06/17 02:28:10;;;;;;;17.17;9.73;;;;;;;19.04;62.56;152066.88;5064589;28;20344;-68
2023/06/17 02:30:36;;;;;;;16.92;9.55;;;;;;;19.10;62.53;152082.34;5064254;28;20060;-68
2023/06/17 02:33:01;;;;;;;16.27;9.23;;;;;;;19.09;62.04;152078.47;5064471;28;20272;-67
2023/06/17 02:35:27;;;;;;;14.73;9.65;;;;;;;19.07;61.67;152073.28;5064249;28;20032;-68
2023/06/17 02:37:53;;;;;;;14.32;9.93;;;;;;;19.18;61.30;152100.41;5064504;28;20330;-67
2023/06/17 02:40:20;;;;;;;15.95;9.70;;;;;;;19.19;61.43;152104.28;5064169;28;20032;-67
2023/06/17 02:42:45;;;;;;;12.85;8.40;;;;;;;19.24;61.44;152115.88;5062872;28;20074;-68
2023/06/17 02:45:12;;;;;;;17.15;9.30;;;;;;;19.22;61.32;152110.75;5064308;28;20088;-68
2023/06/17 02:47:38;;;;;;;13.45;9.35;;;;;;;19.24;61.53;152117.19;5063960;28;20093;-69
2023/06/17 02:50:05;;;;;;;12.02;8.90;;;;;;;19.30;60.98;152132.66;5064162;28;20094;-68
2023/06/17 02:52:34;;;;;;;13.55;9.07;;;;;;;19.31;60.68;152135.28;5043881;28;20036;-67
2023/06/17 02:55:00;;;;;;;13.52;9.13;;;;;;;19.31;61.00;152133.94;5059855;28;20028;-68
2023/06/17 02:57:25;;;;;;;14.07;8.82;;;;;;;19.43;60.52;152164.94;5063580;28;20025;-67
2023/06/17 02:59:51;;;;;;;18.08;10.00;;;;;;;19.42;60.68;152162.34;5059519;28;20105;-66
2023/06/17 03:02:17;;;;;;;11.20;7.88;;;;;;;19.48;60.23;152176.53;5045155;28;20056;-68
2023/06/17 03:04:43;;;;;;;17.77;8.82;;;;;;;19.55;59.64;152194.59;5063411;28;20021;-67
2023/06/17 03:07:11;;;;;;;13.55;9.10;;;;;;;19.58;59.69;152202.41;5063661;28;20041;-68
2023/06/17 03:09:36;;;;;;;12.98;8.18;;;;;;;19.60;59.31;152206.25;5063719;28;20055;-68
2023/06/17 03:12:02;;;;;;;14.32;8.95;;;;;;;19.63;58.79;152214.00;5063763;28;20314;-68
2023/06/17 03:14:29;;;;;;;15.57;8.77;;;;;;;19.77;57.78;152250.13;5063502;28;20033;-67
2023/06/17 03:16:58;;;;;;;15.15;9.05;;;;;;;19.93;57.56;152288.94;5063893;28;20210;-67
2023/06/17 03:19:27;;;;;;;13.27;8.70;;;;;;;20.07;57.79;152325.06;5063167;28;20322;-67
2023/06/17 03:21:53;;;;;;;11.77;8.45;;;;;;;20.33;56.83;152389.63;5062129;28;20021;-66
2023/06/17 03:24:19;;;;;;;18.75;8.95;;;;;;;20.64;56.03;152467.16;5063488;28;20025;-67
2023/06/17 03:26:45;;;;;;;16.88;9.00;;;;;;;20.69;55.63;152481.41;5063255;28;20109;-66
2023/06/17 03:29:11;;;;;;;13.93;8.75;;;;;;;20.70;55.67;152482.69;5063438;28;20037;-67
2023/06/17 03:31:36;;;;;;;17.83;8.63;;;;;;;20.77;55.56;152499.50;5063808;28;20056;-68
2023/06/17 03:34:02;;;;;;;14.68;8.82;;;;;;;20.69;55.66;152480.09;5063505;28;20151;-68
2023/06/17 03:36:29;;;;;;;13.63;9.90;;;;;;;20.73;55.91;152489.16;5063254;28;20110;-67
2023/06/17 03:38:56;;;;;;;16.55;9.07;;;;;;;20.81;55.75;152509.84;5063417;28;20202;-66
2023/06/17 03:41:25;;;;;;;11.52;8.52;;;;;;;20.82;55.52;152513.72;5063323;28;20028;-67
2023/06/17 03:43:50;;;;;;;14.60;8.45;;;;;;;20.84;55.72;152517.59;5063145;28;20195;-66
2023/06/17 03:46:16;;;;;;;11.68;8.45;;;;;;;20.89;55.60;152529.19;5063194;28;20028;-67
2023/06/17 03:48:42;;;;;;;12.98;8.73;;;;;;;20.90;55.39;152531.78;5063029;28;20091;-67
2023/06/17 03:51:07;;;;;;;15.95;8.50;;;;;;;20.91;55.61;152534.34;5063372;28;20029;-66
2023/06/17 03:53:33;;;;;;;13.80;7.70;;;;;;;21.01;55.20;152560.22;5062973;28;20348;-66
2023/06/17 03:55:58;;;;;;;11.82;7.70;;;;;;;21.12;55.00;152587.31;5062231;28;20186;-66
2023/06/17 03:58:24;;;;;;;14.25;8.13;;;;;;;21.21;54.63;152611.88;5062897;28;20056;-66
2023/06/17 04:00:51;;;;;;;15.20;7.55;;;;;;;21.22;54.73;152613.22;5062903;28;20029;-67
2023/06/17 04:03:18;;;;;;;12.68;8.20;;;;;;;21.25;54.48;152619.63;5062789;28;20031;-67
2023/06/17 04:05:44;;;;;;;11.80;7.95;;;;;;;21.27;54.18;152624.81;5063145;28;20336;-67
2023/06/17 04:08:10;;;;;;;9.40;7.03;;;;;;;21.26;54.46;152622.22;5062963;28;20033;-67
2023/06/17 04:10:36;;;;;;;11.68;7.80;;;;;;;21.35;54.05;152645.50;5042850;28;20045;-67
2023/06/17 04:13:02;;;;;;;11.13;7.55;;;;;;;21.36;54.24;152649.38;5058737;28;20033;-67
2023/06/17 04:15:28;;;;;;;12.93;7.55;;;;;;;21.34;54.27;152642.91;5063252;28;20021;-68
2023/06/17 04:17:53;;;;;;;12.43;7.50;;;;;;;21.46;54.09;152672.63;5067085;28;20032;-68
2023/06/17 04:20:19;;;;;;;9.10;7.38;;;;;;;21.47;53.92;152675.22;5066837;28;20282;-67
2023/06/17 04:22:45;;;;;;;9.68;7.75;;;;;;;21.53;54.10;152692.09;5066766;28;20378;-67
2023/06/17 04:25:15;;;;;;;8.55;7.15;;;;;;;21.58;54.03;152702.38;5066873;28;20033;-68
2023/06/17 04:27:41;;;;;;;10.55;7.10;;;;;;;21.63;54.04;152715.34;5066819;28;20056;-67
2023/06/17 04:30:10;;;;;;;10.57;7.78;;;;;;;21.64;54.03;152717.94;5065772;28;20055;-67
2023/06/17 04:32:38;;;;;;;11.75;9.60;;;;;;;21.67;54.43;152725.69;5050307;28;20112;-67
2023/06/17 04:35:05;;;;;;;13.20;7.43;;;;;;;21.78;52.74;152752.84;5066756;28;20025;-67
2023/06/17 04:37:32;;;;;;;15.00;7.65;;;;;;;21.84;53.31;152768.34;5066606;28;20096;-67
2023/06/17 04:39:58;;;;;;;9.02;7.25;;;;;;;21.92;52.62;152787.72;5066714;28;20032;-67
2023/06/17 04:42:24;;;;;;;11.20;7.32;;;;;;;22.06;52.09;152823.91;5066469;28;20017;-68
2023/06/17 04:44:51;;;;;;;11.68;7.25;;;;;;;22.10;52.26;152834.25;5066227;28;20214;-68
2023/06/17 04:47:19;;;;;;;14.13;7.50;;;;;;;22.11;52.53;152836.84;5066545;28;20020;-68
2023/06/17 04:49:47;;;;;;;9.05;6.53;;;;;;;22.23;51.75;152867.91;5066497;28;20035;-69
2023/06/17 04:52:14;;;;;;;11.02;7.60;;;;;;;22.22;51.93;152865.31;5066573;28;20037;-68
2023/06/17 04:54:39;;;;;;;11.93;7.60;;;;;;;22.34;51.87;152893.81;5066075;28;20063;-67
2023/06/17 04:57:08;;;;;;;9.45;7.18;;;;;;;22.39;53.18;152906.75;5066380;28;20028;-68
2023/06/17 04:59:34;;;;;;;10.50;7.72;;;;;;;22.50;52.72;152935.22;5066286;28;20049;-68
2023/06/17 05:01:59;;;;;;;8.10;6.95;;;;;;;22.59;50.98;152957.19;5066282;28;20087;-69
2023/06/17 05:04:25;;;;;;;10.32;7.80;;;;;;;22.72;50.79;152989.53;5065983;28;20029;-68
2023/06/17 05:06:50;;;;;;;9.38;7.68;;;;;;;22.80;50.96;153010.19;5066121;28;20060;-67
2023/06/17 05:09:16;;;;;;;10.43;8.20;;;;;;;22.79;51.92;153007.63;5065828;28;20224;-68
2023/06/17 05:11:42;;;;;;;8.88;7.75;;;;;;;22.94;50.08;153045.13;5066201;28;20078;-67
2023/06/17 05:14:09;;;;;;;9.73;7.43;;;;;;;22.95;50.07;153047.72;5066170;28;20029;-68
2023/06/17 05:16:34;;;;;;;12.95;7.93;;;;;;;23.14;49.37;153095.63;5065778;28;20025;-68
2023/06/17 05:19:00;;;;;;;9.93;8.32;;;;;;;23.29;50.13;153133.19;5065998;28;20131;-69
2023/06/17 05:21:26;;;;;;;11.88;8.38;;;;;;;23.37;49.69;153153.91;5065864;28;20044;-68
2023/06/17 05:23:52;;;;;;;9.73;8.27;;;;;;;23.38;50.52;153155.16;5065680;28;20029;-68
2023/06/17 05:26:17;;;;;;;11.35;8.68;;;;;;;23.39;50.23;153157.78;5065364;28;20025;-68
2023/06/17 05:28:43;;;;;;;8.18;7.15;;;;;;;23.40;49.87;153161.66;5065799;28;20043;-68
2023/06/17 05:31:11;;;;;;;11.25;7.60;;;;;;;23.55;49.97;153199.16;5065811;28;20021;-68
2023/06/17 05:33:37;;;;;;;9.43;7.45;;;;;;;23.60;49.92;153210.78;5065555;28;20091;-67
2023/06/17 05:36:03;;;;;;;11.45;8.30;;;;;;;23.66;50.74;153226.34;5065848;28;20051;-67
2023/06/17 05:38:29;;;;;;;9.25;8.00;;;;;;;23.55;49.75;153197.88;5064357;28;20329;-69
2023/06/17 05:40:55;;;;;;;13.75;7.97;;;;;;;23.71;49.65;153239.28;5065555;28;20029;-66
2023/06/17 05:43:20;;;;;;;13.93;8.60;;;;;;;23.75;50.30;153248.34;5063944;28;20341;-67
2023/06/17 05:45:46;;;;;;;10.77;8.07;;;;;;;23.70;49.81;153236.72;5065546;28;20139;-69
2023/06/17 05:48:12;;;;;;;11.13;8.18;;;;;;;23.87;48.72;153278.16;5065565;28;20044;-68
2023/06/17 05:50:38;;;;;;;10.27;8.73;;;;;;;23.92;49.10;153292.41;5065107;28;20037;-68
2023/06/17 05:53:04;;;;;;;9.05;7.93;;;;;;;23.95;48.53;153298.88;5065608;28;20318;-67
2023/06/17 05:55:29;;;;;;;11.07;7.68;;;;;;;24.13;48.47;153345.50;5064758;28;20052;-67
2023/06/17 05:57:55;;;;;;;8.75;7.18;;;;;;;24.17;48.64;153354.56;5064889;28;20313;-68
2023/06/17 06:00:22;;;;;;;8.65;7.78;;;;;;;24.25;47.60;153375.25;5064882;28;20029;-69
2023/06/17 06:02:50;;;;;;;10.38;7.45;;;;;;;24.28;48.15;153381.75;5062435;28;20119;-67
2023/06/17 06:05:16;;;;;;;10.93;6.82;;;;;;;24.33;47.15;153393.38;5063836;28;20052;-68
2023/06/17 06:07:43;;;;;;;13.75;7.80;;;;;;;24.50;47.93;153436.13;5064851;28;20045;-68
2023/06/17 06:10:12;;;;;;;10.13;7.88;;;;;;;24.51;47.91;153440.00;5065042;28;20037;-67
2023/06/17 06:12:38;;;;;;;8.43;7.18;;;;;;;24.56;46.24;153452.97;5064767;28;20068;-67
2023/06/17 06:15:05;;;;;;;9.35;7.15;;;;;;;24.59;46.26;153459.44;5064887;28;20021;-68
2023/06/17 06:17:30;;;;;;;8.82;7.43;;;;;;;24.71;46.75;153490.59;5063592;28;20092;-68
2023/06/17 06:19:57;;;;;;;9.30;7.30;;;;;;;24.64;46.35;153473.75;5064726;28;20029;-68
2023/06/17 06:22:22;;;;;;;8.52;6.50;;;;;;;24.74;44.69;153497.03;5064515;28;20031;-68
2023/06/17 06:24:48;;;;;;;9.32;7.00;;;;;;;24.48;42.74;153432.22;5064399;28;20049;-69
2023/06/17 06:27:14;;;;;;;12.38;6.75;;;;;;;24.75;43.11;153499.63;5064583;28;20029;-66
2023/06/17 06:29:40;;;;;;;7.55;6.85;;;;;;;24.87;43.86;153529.41;5064115;28;20317;-67
2023/06/17 06:32:06;;;;;;;9.60;7.70;;;;;;;24.89;44.82;153535.91;5064480;28;20028;-67
2023/06/17 06:34:31;;;;;;;9.07;6.93;;;;;;;24.91;44.46;153541.09;5064110;28;20100;-68
2023/06/17 06:36:58;;;;;;;10.50;7.15;;;;;;;25.09;44.52;153586.41;5064511;28;20321;-68
2023/06/17 06:39:25;;;;;;;10.15;6.90;;;;;;;25.21;44.75;153616.25;5062462;28;20029;-67
2023/06/17 06:41:51;;;;;;;8.05;6.80;;;;;;;25.14;42.86;153598.09;5063801;28;20021;-68
2023/06/17 06:44:16;;;;;;;8.38;6.57;;;;;;;25.20;41.98;153613.63;5064168;28;20040;-68
2023/06/17 06:46:42;;;;;;;8.65;7.10;;;;;;;25.11;41.22;153591.63;5064000;28;20337;-69
2023/06/17 06:49:07;;;;;;;14.40;7.38;;;;;;;25.03;42.54;153570.88;5064323;28;20049;-71
2023/06/17 06:51:33;;;;;;;8.10;6.85;;;;;;;25.15;41.98;153600.66;5063883;28;20024;-68
2023/06/17 06:53:59;;;;;;;8.82;7.45;;;;;;;25.21;42.31;153616.25;5063809;28;20091;-68
2023/06/17 06:56:24;;;;;;;7.43;6.72;;;;;;;25.59;42.47;153712.13;5063782;28;20028;-69
2023/06/17 06:58:50;;;;;;;12.00;7.53;;;;;;;25.79;42.39;153762.66;5063982;28;20086;-69
2023/06/17 07:01:16;;;;;;;7.47;6.63;;;;;;;25.57;41.99;153706.97;5064247;28;20021;-69
2023/06/17 07:03:41;;;;;;;14.52;7.95;;;;;;;25.52;42.18;153692.72;5063623;28;20051;-69
2023/06/17 07:06:07;;;;;;;8.65;7.07;;;;;;;25.63;43.09;153722.50;5063510;28;20325;-69
2023/06/17 07:08:33;;;;;;;10.85;7.32;;;;;;;25.67;43.28;153732.88;5063336;28;20071;-68
2023/06/17 07:10:59;;;;;;;8.68;7.03;;;;;;;25.75;41.72;153751.03;5063454;28;20033;-68
2023/06/17 07:13:24;;;;;;;8.10;7.30;;;;;;;25.69;41.26;153736.75;5063302;28;20028;-68
2023/06/17 07:15:50;;;;;;;7.57;6.68;;;;;;;25.82;41.14;153770.50;5063552;28;20024;-69
2023/06/17 07:18:15;;;;;;;8.07;7.25;;;;;;;25.84;42.18;153775.66;5063491;28;20021;-68
2023/06/17 07:20:41;;;;;;;12.90;7.50;;;;;;;25.90;41.19;153789.91;5063466;28;20309;-70
2023/06/17 07:23:06;;;;;;;7.65;6.80;;;;;;;25.94;39.83;153800.28;5062392;28;20017;-70
2023/06/17 07:25:32;;;;;;;10.90;7.90;;;;;;;25.95;41.30;153802.88;5063288;28;20032;-69
2023/06/17 07:27:59;;;;;;;10.15;7.57;;;;;;;26.09;40.81;153837.91;5062296;28;20025;-69
2023/06/17 07:30:26;;;;;;;8.52;7.60;;;;;;;26.01;41.62;153818.47;5062826;28;20031;-67
2023/06/17 07:32:52;;;;;;;9.70;7.35;;;;;;;26.23;40.39;153872.91;5063039;28;20039;-68
2023/06/17 07:35:17;;;;;;;9.25;7.18;;;;;;;26.10;41.05;153840.50;5063195;28;20206;-68
2023/06/17 07:37:43;;;;;;;6.97;6.35;;;;;;;26.27;39.07;153882.00;5063620;28;20024;-68
2023/06/17 07:40:10;;;;;;;7.03;6.32;;;;;;;26.47;38.66;153932.56;5063290;28;20017;-69
2023/06/17 07:42:37;;;;;;;7.40;6.50;;;;;;;26.52;38.63;153945.50;5062968;28;20266;-67
2023/06/17 07:45:05;;;;;;;7.43;6.72;;;;;;;26.72;38.83;153994.84;5063601;28;20032;-68
2023/06/17 07:47:30;;;;;;;11.38;7.63;;;;;;;26.74;38.66;154001.34;5063091;28;20035;-68
2023/06/17 07:49:56;;;;;;;11.77;7.97;;;;;;;26.90;38.46;154041.53;5063340;28;20056;-69
2023/06/17 07:52:21;;;;;;;9.60;7.70;;;;;;;26.99;39.03;154064.91;5062970;28;20031;-69
2023/06/17 07:54:47;;;;;;;8.35;7.55;;;;;;;27.05;38.93;154079.16;5063176;28;20037;-68
2023/06/17 07:57:13;;;;;;;9.02;7.07;;;;;;;26.90;36.63;154041.53;5061660;28;20209;-69
2023/06/17 07:59:41;;;;;;;8.30;7.50;;;;;;;26.72;38.02;153994.84;5063198;28;20024;-68
2023/06/17 08:02:06;;;;;;;7.93;7.18;;;;;;;26.57;39.17;153957.22;5063047;28;20083;-69
2023/06/17 08:04:32;;;;;;;11.05;7.18;;;;;;;26.50;37.21;153940.34;5058237;28;20113;-67
2023/06/17 08:06:57;;;;;;;9.05;6.55;;;;;;;26.38;37.11;153909.22;5055628;28;20076;-68
2023/06/17 08:09:23;;;;;;;7.00;6.25;;;;;;;26.37;36.39;153906.66;5062703;28;20044;-67
2023/06/17 08:11:49;;;;;;;7.65;6.50;;;;;;;26.38;37.07;153910.53;5062981;28;20029;-68
2023/06/17 08:14:15;;;;;;;10.00;6.32;;;;;;;26.09;33.23;153836.63;5063018;28;20037;-67
2023/06/17 08:16:42;;;;;;;8.68;5.95;;;;;;;26.38;33.33;153910.53;5062591;28;20025;-68
2023/06/17 08:19:08;;;;;;;7.15;5.90;;;;;;;26.56;33.91;153955.88;5062771;28;20031;-69
2023/06/17 08:21:34;;;;;;;6.28;5.65;;;;;;;26.73;32.67;153998.72;5062717;28;20025;-69
2023/06/17 08:24:19;;;;;;;7.80;6.07;;;;;;;26.74;32.63;154000.06;5062953;28;20025;-68
2023/06/17 08:26:45;;;;;;;6.93;6.10;;;;;;;27.02;33.05;154071.34;5062973;28;20036;-68
2023/06/17 08:29:15;;;;;;;7.90;5.88;;;;;;;27.07;32.17;154084.31;5062850;28;20067;-68
2023/06/17 08:31:45;;;;;;;7.40;6.35;;;;;;;27.25;31.45;154129.75;5062652;28;20016;-70
2023/06/17 08:34:11;;;;;;;8.52;6.13;;;;;;;27.40;31.88;154167.38;5061755;28;20271;-69
2023/06/17 08:36:40;;;;;;;6.57;5.60;;;;;;;27.26;31.12;154131.03;5061238;28;20233;-69
2023/06/17 08:39:06;;;;;;;8.40;6.20;;;;;;;26.89;31.11;154038.91;5051830;28;20029;-66
2023/06/17 08:41:39;;;;;;;7.72;6.10;;;;;;;26.83;31.63;154024.66;5062416;28;20067;-69
2023/06/17 08:44:06;;;;;;;6.68;5.93;;;;;;;27.11;31.90;154094.72;5061404;28;20029;-69
2023/06/17 08:46:33;;;;;;;5.90;5.30;;;;;;;26.83;31.17;154023.38;5061124;28;20214;-69
2023/06/17 08:48:59;;;;;;;5.68;5.18;;;;;;;27.00;31.90;154066.19;5062645;28;20025;-69
2023/06/17 08:51:25;;;;;;;7.05;6.05;;;;;;;27.02;31.65;154071.34;5057919;28;20101;-69
2023/06/17 08:53:52;;;;;;;6.50;5.65;;;;;;;27.25;31.72;154129.75;5045619;28;20020;-68
2023/06/17 08:56:18;;;;;;;6.65;5.97;;;;;;;27.14;30.85;154102.47;5062266;28;20095;-68
2023/06/17 08:58:47;;;;;;;8.15;5.97;;;;;;;27.55;30.53;154206.31;5062401;28;20204;-69
2023/06/17 09:01:14;;;;;;;6.10;5.60;;;;;;;27.12;30.06;154097.31;5062547;28;20055;-68
2023/06/17 09:03:44;;;;;;;8.50;7.70;;;;;;;27.41;31.22;154170.00;5066126;28;20037;-68
2023/06/17 09:06:30;;;;;;;7.25;6.30;;;;;;;27.32;30.42;154147.91;5065994;28;20346;-68
2023/06/17 09:08:57;;;;;;;7.75;5.82;;;;;;;27.30;31.01;154141.41;5065898;28;20068;-69
2023/06/17 09:11:30;;;;;;;12.50;6.78;;;;;;;27.17;31.39;154110.25;5066099;28;20040;-70
2023/06/17 09:14:00;;;;;;;9.40;6.38;;;;;;;27.01;32.00;154070.06;5046280;28;20033;-68
2023/06/17 09:16:29;;;;;;;10.70;6.35;;;;;;;26.48;33.16;153936.44;5061934;28;20040;-70
2023/06/17 09:18:56;;;;;;;11.77;6.57;;;;;;;26.47;33.00;153933.84;5065933;28;20282;-70
2023/06/17 09:21:24;;;;;;;9.25;7.95;;;;;;;26.83;33.65;154023.38;5066010;28;20037;-69
2023/06/17 09:23:54;;;;;;;8.40;6.97;;;;;;;26.93;33.63;154049.28;5065852;28;20040;-69
2023/06/17 09:26:41;;;;;;;10.40;6.45;;;;;;;26.90;32.71;154040.25;5065702;28;20037;-69
2023/06/17 09:29:11;;;;;;;6.95;6.32;;;;;;;26.95;32.71;154053.19;5045729;28;20055;-69
2023/06/17 09:31:57;;;;;;;7.88;6.70;;;;;;;27.20;33.95;154116.75;5051114;28;20037;-68
2023/06/17 09:34:25;;;;;;;8.85;7.35;;;;;;;27.11;32.77;154094.72;5060956;28;20038;-67
2023/06/17 09:37:00;;;;;;;7.95;7.18;;;;;;;27.00;31.78;154067.44;5065201;28;20104;-69
2023/06/17 09:39:30;;;;;;;7.85;7.10;;;;;;;27.12;31.92;154096.00;5064822;28;20029;-69
2023/06/17 09:41:56;;;;;;;7.85;7.05;;;;;;;27.40;32.37;154167.38;5058065;28;20285;-69
2023/06/17 09:44:24;;;;;;;7.93;7.13;;;;;;;27.40;32.28;154167.38;5065318;28;20484;-69
2023/06/17 09:46:50;;;;;;;8.32;6.85;;;;;;;27.31;31.57;154145.28;5065313;28;20041;-68
2023/06/17 09:49:23;;;;;;;8.80;6.78;;;;;;;27.05;32.22;154079.16;5065477;28;20063;-69
2023/06/17 09:51:51;;;;;;;7.80;6.97;;;;;;;27.09;32.89;154088.22;5047385;28;20029;-70
2023/06/17 09:54:19;;;;;;;16.25;10.70;;;;;;;26.99;33.21;154064.91;5065056;28;20186;-68
2023/06/17 09:56:46;;;;;;;7.57;6.65;;;;;;;26.94;32.50;154050.63;5064959;28;20025;-69
2023/06/17 09:59:12;;;;;;;7.30;6.60;;;;;;;26.74;32.88;154001.34;5047091;28;20062;-67
2023/06/17 10:01:41;;;;;;;9.23;7.10;;;;;;;26.73;32.32;153998.72;5064890;28;20028;-68
2023/06/17 10:04:07;;;;;;;9.15;7.47;;;;;;;26.53;32.08;153949.38;5064757;28;20234;-67
2023/06/17 10:06:38;;;;;;;7.82;6.80;;;;;;;26.80;32.80;154015.59;5064844;28;20070;-69
2023/06/17 10:09:08;;;;;;;7.73;6.93;;;;;;;26.97;33.10;154058.41;5065201;28;20313;-68
2023/06/17 10:11:35;;;;;;;7.57;6.80;;;;;;;26.87;32.15;154035.03;5065282;28;20037;-67
2023/06/17 10:14:33;;;;;;;9.32;7.40;;;;;;;26.61;31.85;153968.88;5063879;28;20071;-68
2023/06/17 10:17:01;;;;;;;10.02;7.18;;;;;;;26.57;32.18;153958.50;5063981;28;20040;-68
2023/06/17 10:19:31;;;;;;;7.25;6.55;;;;;;;26.66;32.66;153980.53;5064411;28;20020;-67
2023/06/17 10:22:00;;;;;;;7.38;6.32;;;;;;;26.81;31.69;154018.22;5064396;28;20246;-69
2023/06/17 10:24:26;;;;;;;8.95;6.88;;;;;;;27.20;32.50;154118.03;5059826;28;20093;-68
2023/06/17 10:26:53;;;;;;;8.48;6.40;;;;;;;27.33;31.60;154150.47;5047100;28;20029;-69
2023/06/17 10:29:20;;;;;;;9.70;7.20;;;;;;;27.43;31.90;154173.88;5064654;28;20028;-68
2023/06/17 10:31:45;;;;;;;12.73;7.63;;;;;;;27.36;30.49;154158.34;5064465;28;20041;-67
2023/06/17 10:34:21;;;;;;;8.90;7.63;;;;;;;27.42;30.80;154172.59;5064475;28;20088;-69
2023/06/17 10:36:57;;;;;;;8.20;7.40;;;;;;;27.37;31.07;154159.63;5064442;28;20040;-68
2023/06/17 10:39:22;;;;;;;9.18;8.07;;;;;;;27.46;31.48;154182.94;5059609;28;20029;-68
2023/06/17 10:41:50;;;;;;;12.38;8.40;;;;;;;27.43;31.58;154175.16;5063670;28;20032;-68
2023/06/17 10:44:34;;;;;;;9.35;7.47;;;;;;;27.46;32.40;154181.66;5064299;28;20035;-68
2023/06/17 10:47:01;;;;;;;8.88;7.82;;;;;;;26.85;31.77;154029.88;5063996;28;20334;-69
2023/06/17 10:49:38;;;;;;;11.02;7.68;;;;;;;26.76;31.93;154005.22;5063977;28;20031;-69
2023/06/17 10:52:05;;;;;;;10.80;7.50;;;;;;;26.40;32.59;153915.69;5063929;28;20028;-68
2023/06/17 10:54:32;;;;;;;9.30;7.80;;;;;;;26.62;32.88;153971.47;5063815;28;20201;-68
2023/06/17 10:57:01;;;;;;;11.10;7.80;;;;;;;26.62;32.86;153971.47;5062918;28;20040;-69
2023/06/17 10:59:29;;;;;;;8.60;7.35;;;;;;;26.80;32.77;154016.88;5063850;28;20048;-68
2023/06/17 11:02:03;;;;;;;11.43;7.32;;;;;;;26.84;32.43;154025.97;5063786;28;20055;-68
2023/06/17 11:04:32;;;;;;;9.40;7.53;;;;;;;26.95;31.96;154054.50;5063741;28;20028;-69
2023/06/17 11:06:59;;;;;;;8.85;7.28;;;;;;;27.17;32.43;154110.25;5064077;28;20314;-68
2023/06/17 11:09:26;;;;;;;9.85;7.80;;;;;;;27.34;33.09;154153.13;5063353;28;20052;-67
2023/06/17 11:11:53;;;;;;;8.05;7.25;;;;;;;27.33;31.69;154150.47;5063774;28;20053;-69
2023/06/17 11:14:19;;;;;;;12.43;8.73;;;;;;;26.91;31.50;154044.13;5063884;28;20064;-68
2023/06/17 11:16:45;;;;;;;8.13;7.32;;;;;;;26.56;31.59;153955.88;5063795;28;20025;-69
2023/06/17 11:19:13;;;;;;;9.23;7.75;;;;;;;26.60;30.98;153966.25;5063619;28;20048;-68